Time;durP1;ratioP1;P1;durP2;ratioP2;P2;SDS_P1;SDS_P2;PMS_P1;PMS_P2;Temp;Humidity;BMP_temperature;BMP_pressure;BME280_temperature;BME280_humidity;BME280_pressure;Samples;Min_cycle;Max_cycle;Signal;HPM_P1;HPM_P2
2022/10/02 00:00:03;;;;;;;74.53;51.25;;;21.00;62.90;;;;;;5030037;27;85329;-49
2022/10/02 00:02:38;;;;;;;73.53;51.28;;;21.00;62.90;;;;;;5020462;27;85712;-46
2022/10/02 00:05:15;;;;;;;73.47;51.15;;;21.00;63.10;;;;;;5024413;27;85987;-50
2022/10/02 00:07:59;;;;;;;75.75;51.13;;;21.00;63.00;;;;;;5020199;27;86064;-46
2022/10/02 00:10:34;;;;;;;75.97;51.00;;;21.00;63.00;;;;;;5029899;27;88432;-48
2022/10/02 00:13:05;;;;;;;73.15;51.17;;;21.00;62.90;;;;;;5029519;27;85828;-47
2022/10/02 00:15:34;;;;;;;72.35;51.15;;;21.00;62.90;;;;;;5027034;27;85732;-46
2022/10/02 00:18:17;;;;;;;73.18;51.05;;;21.00;62.90;;;;;;5019985;27;85621;-47
2022/10/02 00:21:00;;;;;;;72.65;50.97;;;21.00;62.90;;;;;;5024126;27;88277;-51
2022/10/02 00:23:40;;;;;;;76.13;51.00;;;21.00;62.90;;;;;;5031364;27;86293;-53
2022/10/02 00:26:09;;;;;;;73.07;51.28;;;21.00;62.90;;;;;;5018754;27;86208;-51
2022/10/02 00:28:54;;;;;;;73.82;50.95;;;21.00;62.90;;;;;;5028845;27;86372;-47
2022/10/02 00:31:40;;;;;;;71.85;50.85;;;21.00;62.90;;;;;;5029999;27;86470;-48
2022/10/02 00:34:25;;;;;;;74.85;51.10;;;21.00;63.00;;;;;;5031460;27;91068;-47
2022/10/02 00:37:28;;;;;;;74.15;50.95;;;21.00;62.90;;;;;;5024971;27;85663;-46
2022/10/02 00:40:01;;;;;;;74.03;51.28;;;21.00;62.90;;;;;;5029464;27;87077;-49
2022/10/02 00:42:51;;;;;;;71.95;50.85;;;21.00;62.80;;;;;;5019675;27;86447;-52
2022/10/02 00:46:03;;;;;;;73.45;50.83;;;21.00;62.90;;;;;;5022753;27;86224;-50
2022/10/02 00:49:12;;;;;;;73.15;50.85;;;21.00;62.90;;;;;;4993741;27;85561;-49
2022/10/02 00:51:53;;;;;;;73.38;50.95;;;21.00;62.80;;;;;;4987031;27;86717;-49
2022/10/02 00:54:29;;;;;;;73.07;50.60;;;20.90;62.80;;;;;;5018408;27;85846;-49
2022/10/02 00:57:27;;;;;;;73.75;51.05;;;20.90;63.00;;;;;;5021183;27;85863;-53
2022/10/02 01:00:13;;;;;;;71.57;50.95;;;20.90;62.80;;;;;;5025342;27;89668;-50
2022/10/02 01:02:38;;;;;;;73.20;50.90;;;21.00;62.80;;;;;;5018724;27;85083;-47
2022/10/02 01:05:09;;;;;;;72.97;51.08;;;20.90;62.90;;;;;;5030596;27;88718;-47
2022/10/02 01:07:39;;;;;;;71.10;50.65;;;21.00;62.80;;;;;;5033197;27;85948;-48
2022/10/02 01:10:05;;;;;;;74.60;50.92;;;21.00;62.80;;;;;;5029670;27;87573;-51
2022/10/02 01:12:30;;;;;;;75.88;50.90;;;20.90;62.80;;;;;;5020969;27;85891;-49
2022/10/02 01:14:56;;;;;;;74.35;50.95;;;20.90;62.90;;;;;;5027471;27;85885;-50
2022/10/02 01:17:25;;;;;;;71.97;51.03;;;20.90;62.70;;;;;;5021368;27;85897;-49
2022/10/02 01:19:52;;;;;;;72.47;51.22;;;20.90;62.70;;;;;;5022579;27;86816;-46
2022/10/02 01:22:37;;;;;;;71.88;50.58;;;20.90;62.80;;;;;;5025698;27;85922;-49
2022/10/02 01:25:05;;;;;;;72.20;51.03;;;20.90;62.80;;;;;;5025209;27;88390;-48
2022/10/02 01:27:32;;;;;;;71.78;51.03;;;20.90;63.60;;;;;;5020592;27;86437;-47
2022/10/02 01:30:08;;;;;;;73.40;51.05;;;20.90;62.90;;;;;;5018405;27;85887;-48
2022/10/02 01:32:36;;;;;;;72.32;51.05;;;20.90;62.80;;;;;;5019560;27;86154;-46
2022/10/02 01:35:03;;;;;;;72.72;51.03;;;20.90;62.80;;;;;;5019554;27;85745;-50
2022/10/02 01:37:31;;;;;;;73.00;51.03;;;20.90;62.80;;;;;;5023127;27;87512;-46
2022/10/02 01:40:03;;;;;;;72.05;51.13;;;20.90;62.80;;;;;;5016339;27;87526;-50
2022/10/02 01:42:28;;;;;;;;;;;20.90;62.80;;;;;;5025012;27;85640;-49
2022/10/02 01:44:54;;;;;;;73.70;50.67;;;20.90;62.80;;;;;;5026764;27;84724;-46
2022/10/02 01:47:35;;;;;;;72.45;50.63;;;20.90;62.90;;;;;;5021585;27;85891;-50
2022/10/02 01:50:15;;;;;;;72.47;51.08;;;20.90;63.00;;;;;;5017385;27;89555;-47
2022/10/02 01:53:07;;;;;;;72.53;50.78;;;20.90;62.90;;;;;;5020467;27;85901;-48
2022/10/02 01:55:50;;;;;;;71.70;50.78;;;20.90;62.80;;;;;;5016889;27;88198;-50
2022/10/02 01:58:25;;;;;;;72.78;50.50;;;20.90;62.70;;;;;;5013428;27;90286;-48
2022/10/02 02:01:20;;;;;;;72.80;50.60;;;20.90;62.70;;;;;;5016484;27;85703;-47
2022/10/02 02:04:04;;;;;;;70.88;50.38;;;20.90;62.80;;;;;;5009997;27;85174;-48
2022/10/02 02:06:38;;;;;;;72.05;50.75;;;20.90;62.80;;;;;;5015708;27;86532;-50
2022/10/02 02:09:41;;;;;;;73.47;50.90;;;20.90;62.80;;;;;;5014905;27;90926;-47
2022/10/02 02:12:32;;;;;;;73.47;50.97;;;20.90;62.70;;;;;;5018223;27;86331;-52
2022/10/02 02:15:19;;;;;;;72.25;50.58;;;20.80;62.80;;;;;;5015693;27;86915;-46
2022/10/02 02:17:51;;;;;;;70.70;50.80;;;20.80;63.00;;;;;;5020812;27;90837;-47
2022/10/02 02:20:43;;;;;;;71.72;50.85;;;20.80;62.90;;;;;;5021221;27;85993;-47
2022/10/02 02:23:16;;;;;;;70.78;50.90;;;20.80;62.80;;;;;;5016334;27;85450;-45
2022/10/02 02:25:45;;;;;;;72.32;50.53;;;20.80;62.80;;;;;;5022864;27;87112;-46
2022/10/02 02:28:14;;;;;;;74.70;51.00;;;20.80;62.80;;;;;;5018952;27;86611;-46
2022/10/02 02:30:44;;;;;;;72.90;50.72;;;20.80;62.80;;;;;;5013753;27;87465;-45
2022/10/02 02:33:18;;;;;;;72.30;50.80;;;20.80;62.80;;;;;;5013914;27;90818;-45
2022/10/02 02:35:49;;;;;;;73.22;50.85;;;20.80;62.80;;;;;;5025906;27;87794;-51
2022/10/02 02:38:23;;;;;;;71.88;50.55;;;20.80;62.80;;;;;;5022914;27;92212;-46
2022/10/02 02:40:50;;;;;;;70.70;50.25;;;20.80;62.70;;;;;;5014675;27;87319;-48
2022/10/02 02:43:26;;;;;;;72.68;50.67;;;20.80;62.80;;;;;;5014369;27;85361;-49
2022/10/02 02:45:58;;;;;;;72.07;51.30;;;20.80;62.80;;;;;;5009770;27;88509;-46
2022/10/02 02:48:38;;;;;;;72.00;50.75;;;20.80;62.70;;;;;;5018582;27;86002;-45
2022/10/02 02:51:09;;;;;;;72.13;50.72;;;20.80;62.70;;;;;;5019975;27;86436;-47
2022/10/02 02:53:43;;;;;;;70.47;50.63;;;20.80;62.70;;;;;;5019235;27;86766;-52
2022/10/02 02:56:14;;;;;;;70.93;50.92;;;20.90;62.70;;;;;;5016737;27;89730;-49
2022/10/02 02:58:50;;;;;;;70.13;50.40;;;20.80;62.70;;;;;;5019614;27;85764;-50
2022/10/02 03:01:16;;;;;;;71.93;50.50;;;20.80;62.80;;;;;;5016799;27;87709;-47
2022/10/02 03:03:42;;;;;;;73.38;50.60;;;20.80;62.80;;;;;;5016622;27;85364;-49
2022/10/02 03:06:19;;;;;;;72.35;50.65;;;20.80;62.70;;;;;;5007168;27;87523;-48
2022/10/02 03:08:47;;;;;;;71.45;50.55;;;20.80;62.70;;;;;;5018454;27;86276;-48
2022/10/02 03:11:40;;;;;;;70.50;50.85;;;20.80;62.80;;;;;;5020014;27;86287;-47
2022/10/02 03:14:21;;;;;;;74.75;51.03;;;20.80;62.80;;;;;;4999622;27;85742;-52
2022/10/02 03:16:49;;;;;;;71.10;50.45;;;20.80;62.80;;;;;;5025165;27;85713;-48
2022/10/02 03:19:35;;;;;;;73.20;50.60;;;20.80;62.80;;;;;;5024448;27;85610;-49
2022/10/02 03:22:15;;;;;;;71.63;50.53;;;20.80;62.90;;;;;;4993175;27;89608;-47
2022/10/02 03:25:07;;;;;;;72.00;50.33;;;20.80;62.80;;;;;;5021337;27;86720;-48
2022/10/02 03:27:51;;;;;;;70.35;50.35;;;20.80;62.70;;;;;;5023801;27;85595;-50
2022/10/02 03:30:20;;;;;;;72.25;50.90;;;20.80;62.70;;;;;;5021126;27;86763;-47
2022/10/02 03:32:52;;;;;;;71.22;50.67;;;20.80;62.70;;;;;;5014141;27;86326;-51
2022/10/02 03:35:18;;;;;;;;;;;20.70;62.80;;;;;;5016257;27;85776;-48
2022/10/02 03:37:48;;;;;;;71.22;50.83;;;20.70;62.80;;;;;;5031346;27;86286;-52
2022/10/02 03:40:14;;;;;;;69.60;50.13;;;20.70;62.80;;;;;;5026392;27;89158;-47
2022/10/02 03:42:39;;;;;;;72.80;50.55;;;20.80;62.80;;;;;;5025728;27;89576;-49
2022/10/02 03:45:06;;;;;;;70.28;50.58;;;20.70;62.80;;;;;;5026779;27;86563;-46
2022/10/02 03:47:31;;;;;;;71.00;50.60;;;20.70;62.80;;;;;;5027964;27;85840;-50
2022/10/02 03:49:57;;;;;;;69.63;50.58;;;20.70;62.80;;;;;;5021373;27;87135;-50
2022/10/02 03:52:24;;;;;;;71.70;50.78;;;20.70;62.80;;;;;;5025268;27;86178;-50
2022/10/02 03:55:12;;;;;;;70.90;50.65;;;20.80;62.80;;;;;;5018343;27;90385;-49
2022/10/02 03:57:39;;;;;;;71.57;50.45;;;20.70;62.60;;;;;;5023396;27;86528;-52
2022/10/02 04:00:18;;;;;;;70.72;50.17;;;20.70;62.70;;;;;;5022752;27;85468;-49
2022/10/02 04:02:46;;;;;;;70.70;50.25;;;20.70;62.70;;;;;;5024400;27;90701;-48
2022/10/02 04:05:25;;;;;;;70.90;50.65;;;20.70;62.60;;;;;;5025300;27;87623;-51
2022/10/02 04:08:06;;;;;;;69.63;50.15;;;20.80;62.60;;;;;;5024266;27;87143;-48
2022/10/02 04:10:38;;;;;;;;;;;20.70;62.60;;;;;;5012474;27;85799;-44
2022/10/02 04:13:10;;;;;;;;;;;20.70;62.70;;;;;;5024532;27;91204;-51
2022/10/02 04:15:44;;;;;;;;;;;20.70;62.80;;;;;;5029352;27;84032;-48
2022/10/02 04:18:14;;;;;;;;;;;20.70;62.70;;;;;;5022123;27;87498;-50
2022/10/02 04:20:46;;;;;;;;;;;20.70;62.80;;;;;;5019392;27;85065;-49
2022/10/02 04:23:18;;;;;;;;;;;20.70;62.60;;;;;;5015309;27;88069;-47
2022/10/02 04:25:47;;;;;;;;;;;20.70;62.70;;;;;;5021222;27;84499;-46
2022/10/02 04:28:14;;;;;;;;;;;20.70;62.70;;;;;;5022525;27;84750;-48
2022/10/02 04:30:39;;;;;;;;;;;20.70;62.80;;;;;;5020969;27;85351;-51
2022/10/02 04:33:13;;;;;;;;;;;20.70;62.90;;;;;;5031754;27;86046;-48
2022/10/02 04:35:51;;;;;;;;;;;20.70;62.80;;;;;;5025787;27;84855;-46
2022/10/02 04:38:22;;;;;;;;;;;20.70;62.80;;;;;;5022283;27;84813;-47
2022/10/02 04:40:49;;;;;;;;;;;20.70;62.70;;;;;;5026418;27;83804;-50
2022/10/02 04:43:27;;;;;;;;;;;20.70;62.70;;;;;;5026035;27;85430;-48
2022/10/02 04:46:00;;;;;;;;;;;20.70;62.70;;;;;;5027353;27;88943;-50
2022/10/02 04:48:34;;;;;;;;;;;20.70;62.80;;;;;;5023012;27;85933;-48
2022/10/02 04:50:59;;;;;;;;;;;20.70;62.90;;;;;;5027195;27;85235;-49
2022/10/02 04:53:38;;;;;;;;;;;20.70;62.90;;;;;;5022923;27;86658;-50
2022/10/02 04:56:12;;;;;;;;;;;20.60;62.80;;;;;;5024506;27;85206;-48
2022/10/02 04:58:56;;;;;;;;;;;20.70;62.80;;;;;;5025193;27;87961;-46
2022/10/02 05:01:41;;;;;;;;;;;20.70;62.80;;;;;;5019814;27;84758;-46
2022/10/02 05:04:25;;;;;;;;;;;20.70;62.90;;;;;;5027087;27;85751;-50
2022/10/02 05:06:50;;;;;;;;;;;20.60;62.80;;;;;;5032046;27;84155;-47
2022/10/02 05:09:22;;;;;;;;;;;20.70;62.70;;;;;;5032560;27;85321;-48
2022/10/02 05:12:06;;;;;;;;;;;20.70;62.90;;;;;;5029523;27;84324;-46
2022/10/02 05:14:44;;;;;;;;;;;20.60;62.70;;;;;;5027247;27;85515;-45
2022/10/02 05:17:19;;;;;;;;;;;20.60;62.70;;;;;;5024261;27;87653;-47
2022/10/02 05:19:47;;;;;;;;;;;20.70;62.80;;;;;;5020474;27;85568;-47
2022/10/02 05:22:13;;;;;;;;;;;20.70;62.80;;;;;;5027034;27;84838;-48
2022/10/02 05:24:45;;;;;;;;;;;20.60;62.90;;;;;;5033809;27;85026;-46
2022/10/02 05:27:16;;;;;;;;;;;20.60;62.80;;;;;;5022166;27;86632;-50
2022/10/02 05:29:51;;;;;;;;;;;20.60;62.90;;;;;;5040194;27;84959;-47
2022/10/02 05:32:23;;;;;;;;;;;20.60;62.80;;;;;;5018138;27;84187;-46
2022/10/02 05:34:49;;;;;;;;;;;20.60;62.90;;;;;;5024108;27;87266;-53
2022/10/02 05:37:36;;;;;;;;;;;20.60;62.90;;;;;;5024815;27;86417;-46
2022/10/02 05:40:07;;;;;;;;;;;20.60;62.90;;;;;;5024171;27;86323;-49
2022/10/02 05:42:39;;;;;;;;;;;20.60;63.00;;;;;;5021527;27;84698;-48
2022/10/02 05:45:24;;;;;;;;;;;20.60;63.00;;;;;;5021785;27;85508;-50
2022/10/02 05:47:52;;;;;;;;;;;20.60;63.10;;;;;;5023837;27;84768;-48
2022/10/02 05:50:20;;;;;;;;;;;20.60;63.00;;;;;;5016792;27;84921;-45
2022/10/02 05:52:49;;;;;;;;;;;20.50;63.00;;;;;;5025441;27;84950;-47
2022/10/02 05:55:18;;;;;;;;;;;20.60;63.00;;;;;;5026986;27;86849;-49
2022/10/02 05:57:43;;;;;;;;;;;20.60;63.00;;;;;;5021252;27;87416;-50
2022/10/02 06:00:28;;;;;;;;;;;20.50;63.00;;;;;;5024388;27;84861;-50
2022/10/02 06:02:59;;;;;;;;;;;20.50;63.00;;;;;;5025431;27;85492;-49
2022/10/02 06:05:29;;;;;;;;;;;20.50;63.10;;;;;;5019781;27;91282;-50
2022/10/02 06:08:00;;;;;;;;;;;20.50;63.10;;;;;;5024668;27;86697;-47
2022/10/02 06:10:28;;;;;;;;;;;20.50;63.00;;;;;;5016883;27;84938;-49
2022/10/02 06:13:01;;;;;;;;;;;20.50;63.00;;;;;;5017639;27;84801;-47
2022/10/02 06:15:42;;;;;;;;;;;20.50;63.00;;;;;;5017688;27;87607;-53
2022/10/02 06:18:10;;;;;;;;;;;20.50;63.00;;;;;;5020362;27;84635;-51
2022/10/02 06:20:48;;;;;;;;;;;20.50;63.00;;;;;;5014234;27;85122;-46
2022/10/02 06:23:17;;;;;;;;;;;20.50;63.00;;;;;;5023963;27;83759;-50
2022/10/02 06:25:51;;;;;;;;;;;20.60;63.00;;;;;;5029636;27;84808;-45
2022/10/02 06:28:19;;;;;;;;;;;20.60;63.00;;;;;;5028217;27;84905;-45
2022/10/02 06:30:48;;;;;;;;;;;20.50;63.00;;;;;;5024454;27;85951;-50
2022/10/02 06:33:14;;;;;;;;;;;20.50;63.00;;;;;;5021346;27;84814;-48
2022/10/02 06:35:51;;;;;;;;;;;20.50;63.00;;;;;;5025004;27;85206;-48
2022/10/02 06:38:35;;;;;;;;;;;20.50;62.90;;;;;;5022054;27;84852;-50
2022/10/02 06:41:18;;;;;;;;;;;20.50;63.00;;;;;;5024603;27;85000;-52
2022/10/02 06:43:59;;;;;;;;;;;20.50;62.90;;;;;;5032284;27;84997;-49
2022/10/02 06:46:30;;;;;;;;;;;20.50;62.90;;;;;;5018743;27;84489;-47
2022/10/02 06:49:00;;;;;;;;;;;20.50;62.90;;;;;;5025281;27;83613;-46
2022/10/02 06:51:39;;;;;;;;;;;20.50;63.10;;;;;;5024066;27;88005;-47
2022/10/02 06:54:11;;;;;;;;;;;20.50;63.00;;;;;;5022383;27;86117;-46
2022/10/02 06:56:44;;;;;;;;;;;20.50;62.90;;;;;;5019830;27;85944;-46
2022/10/02 06:59:18;;;;;;;;;;;20.50;63.00;;;;;;5026397;27;85141;-48
2022/10/02 07:01:45;;;;;;;;;;;20.50;63.00;;;;;;5022277;27;86183;-47
2022/10/02 07:04:26;;;;;;;;;;;20.50;62.90;;;;;;5024332;27;85105;-46
2022/10/02 07:06:51;;;;;;;;;;;20.50;62.80;;;;;;5018891;27;91021;-50
2022/10/02 07:09:23;;;;;;;;;;;20.50;62.90;;;;;;5028384;27;84734;-48
2022/10/02 07:12:04;;;;;;;;;;;20.50;63.00;;;;;;5028505;27;87944;-46
2022/10/02 07:14:56;;;;;;;;;;;20.50;62.90;;;;;;5023109;27;83949;-48
2022/10/02 07:17:21;;;;;;;;;;;20.50;62.80;;;;;;5019908;27;86256;-50
2022/10/02 07:20:06;;;;;;;;;;;20.50;62.90;;;;;;5018856;27;84672;-51
2022/10/02 07:22:37;;;;;;;;;;;20.50;62.80;;;;;;5026586;27;90987;-46
2022/10/02 07:25:05;;;;;;;;;;;20.50;63.00;;;;;;5025191;27;85255;-49
2022/10/02 07:27:35;;;;;;;;;;;20.50;63.00;;;;;;5022327;27;85141;-47
2022/10/02 07:30:07;;;;;;;;;;;20.50;63.00;;;;;;5028845;27;84331;-48
2022/10/02 07:32:47;;;;;;;;;;;20.50;62.90;;;;;;5026900;27;86429;-50
2022/10/02 07:35:24;;;;;;;;;;;20.50;63.00;;;;;;5015596;27;84814;-47
2022/10/02 07:38:08;;;;;;;;;;;20.50;63.00;;;;;;5030062;27;88920;-49
2022/10/02 07:40:52;;;;;;;;;;;20.50;62.80;;;;;;5036406;27;90709;-49
2022/10/02 07:43:18;;;;;;;;;;;20.50;62.90;;;;;;5021923;27;87836;-48
2022/10/02 07:45:53;;;;;;;;;;;20.50;63.00;;;;;;5029799;27;85664;-46
2022/10/02 07:48:27;;;;;;;;;;;20.50;63.00;;;;;;5024963;27;86330;-51
2022/10/02 07:50:55;;;;;;;;;;;20.50;63.00;;;;;;5017784;27;84946;-51
2022/10/02 07:53:30;;;;;;;;;;;20.50;63.00;;;;;;5015523;27;84376;-47
2022/10/02 07:55:56;;;;;;;;;;;20.50;63.00;;;;;;5018745;27;84962;-48
2022/10/02 07:58:36;;;;;;;;;;;20.50;63.00;;;;;;5024603;27;85065;-50
2022/10/02 08:01:04;;;;;;;;;;;20.50;62.90;;;;;;5028852;27;85674;-50
2022/10/02 08:03:34;;;;;;;;;;;20.50;62.90;;;;;;5021636;27;89493;-45
2022/10/02 08:06:00;;;;;;;;;;;20.50;62.80;;;;;;5033794;27;85000;-49
2022/10/02 08:08:37;;;;;;;;;;;20.50;62.80;;;;;;5026495;27;84702;-50
2022/10/02 08:11:06;;;;;;;;;;;20.50;63.00;;;;;;5023690;27;84595;-46
2022/10/02 08:13:35;;;;;;;;;;;20.50;62.90;;;;;;5015441;27;86755;-49
2022/10/02 08:16:03;;;;;;;;;;;20.60;62.90;;;;;;5023839;27;85490;-50
2022/10/02 08:18:43;;;;;;;;;;;20.60;62.90;;;;;;5036394;27;87228;-53
2022/10/02 08:21:11;;;;;;;;;;;20.50;62.80;;;;;;5029938;27;85015;-53
2022/10/02 08:23:42;;;;;;;;;;;20.60;63.00;;;;;;5034326;27;85918;-49
2022/10/02 08:26:08;;;;;;;;;;;20.60;62.80;;;;;;5018066;27;85524;-52
2022/10/02 08:28:41;;;;;;;;;;;20.60;62.70;;;;;;5020067;27;84644;-47
2022/10/02 08:31:10;;;;;;;;;;;20.60;62.80;;;;;;5024586;27;86153;-51
2022/10/02 08:33:37;;;;;;;;;;;20.60;62.80;;;;;;5033115;27;85325;-49
2022/10/02 08:36:06;;;;;;;;;;;20.60;62.80;;;;;;5027671;27;85456;-48
2022/10/02 08:38:35;;;;;;;;;;;20.60;62.90;;;;;;5030871;27;86318;-47
2022/10/02 08:41:03;;;;;;;;;;;20.60;62.90;;;;;;5027758;27;84805;-50
2022/10/02 08:43:47;;;;;;;;;;;20.60;62.90;;;;;;5025885;27;85834;-47
2022/10/02 08:46:22;;;;;;;;;;;20.60;62.90;;;;;;5018636;27;85401;-47
2022/10/02 08:49:06;;;;;;;;;;;20.60;62.90;;;;;;5026368;27;84908;-47
2022/10/02 08:51:50;;;;;;;;;;;20.60;63.10;;;;;;5015527;27;86958;-50
2022/10/02 08:54:24;;;;;;;;;;;20.60;63.00;;;;;;5019622;27;90212;-48
2022/10/02 08:56:50;;;;;;;;;;;20.60;63.00;;;;;;5019956;27;89101;-49
2022/10/02 08:59:27;;;;;;;;;;;20.60;62.90;;;;;;5010304;27;93515;-48
2022/10/02 09:01:59;;;;;;;;;;;20.60;62.90;;;;;;5007076;27;93884;-47
2022/10/02 09:04:44;;;;;;;;;;;20.60;63.00;;;;;;5006291;27;91544;-52
2022/10/02 09:07:29;;;;;;;;;;;20.50;62.90;;;;;;5005891;27;90661;-45
2022/10/02 09:10:03;;;;;;;;;;;20.60;62.90;;;;;;5005714;27;91147;-46
2022/10/02 09:12:47;;;;;;;;;;;20.60;62.90;;;;;;5014321;27;90339;-49
2022/10/02 09:15:13;;;;;;;;;;;20.60;62.90;;;;;;5033424;27;90538;-49
2022/10/02 09:17:57;;;;;;;;;;;20.60;62.80;;;;;;5023441;27;90017;-49
2022/10/02 09:20:42;;;;;;;;;;;20.60;62.90;;;;;;5029836;27;90246;-48
2022/10/02 09:23:08;;;;;;;;;;;20.60;63.00;;;;;;5027128;27;89086;-52
2022/10/02 09:25:43;;;;;;;;;;;20.60;62.90;;;;;;5018648;27;90760;-49
2022/10/02 09:28:21;;;;;;;;;;;20.60;62.80;;;;;;5025676;27;90856;-50
2022/10/02 09:30:46;;;;;;;;;;;20.60;62.80;;;;;;5021026;27;91943;-53
2022/10/02 09:33:21;;;;;;;;;;;20.70;62.80;;;;;;5025810;27;89937;-51
2022/10/02 09:36:10;;;;;;;;;;;20.60;63.00;;;;;;5004345;27;95484;-51
2022/10/02 09:38:52;;;;;;;;;;;20.60;63.00;;;;;;5036231;27;90575;-50
2022/10/02 09:41:23;;;;;;;;;;;20.60;63.30;;;;;;5035746;27;90913;-50
2022/10/02 09:44:00;;;;;;;;;;;20.60;63.20;;;;;;5027426;27;89985;-47
2022/10/02 09:46:58;;;;;;;;;;;20.60;63.10;;;;;;5028812;27;89943;-52
2022/10/02 09:49:39;;;;;;;;;;;20.60;63.00;;;;;;4980102;27;89242;-47
2022/10/02 09:52:07;;;;;;;;;;;20.60;63.00;;;;;;5021770;27;92136;-50
2022/10/02 09:54:35;;;;;;;;;;;20.60;62.90;;;;;;5031672;27;91404;-48
2022/10/02 09:57:30;;;;;;;;;;;20.70;62.80;;;;;;5017918;27;91945;-50
2022/10/02 10:00:02;;;;;;;;;;;20.70;62.80;;;;;;4978653;27;90195;-49
2022/10/02 10:02:46;;;;;;;;;;;20.70;62.70;;;;;;5034774;27;91194;-51
2022/10/02 10:05:12;;;;;;;;;;;20.70;62.80;;;;;;5027293;27;89759;-52
2022/10/02 10:07:46;;;;;;;;;;;20.60;62.90;;;;;;5016447;27;89774;-52
2022/10/02 10:10:17;;;;;;;;;;;20.70;62.90;;;;;;5023377;27;90255;-50
2022/10/02 10:12:43;;;;;;;;;;;20.70;62.60;;;;;;5020703;27;90343;-47
2022/10/02 10:15:28;;;;;;;;;;;20.70;62.60;;;;;;5020055;27;95596;-51
2022/10/02 10:18:08;;;;;;;;;;;20.70;62.70;;;;;;5015187;27;91532;-51
2022/10/02 10:20:37;;;;;;;;;;;20.70;62.70;;;;;;5011147;27;90898;-51
2022/10/02 10:23:21;;;;;;;;;;;20.70;62.70;;;;;;5016544;27;90865;-51
2022/10/02 10:26:05;;;;;;;;;;;20.70;62.60;;;;;;5021705;27;89994;-46
2022/10/02 10:28:49;;;;;;;;;;;20.70;62.50;;;;;;5027049;27;91106;-50
2022/10/02 10:31:14;;;;;;;;;;;20.70;62.50;;;;;;5022920;27;91323;-49
2022/10/02 10:33:55;;;;;;;;;;;20.70;62.40;;;;;;5031129;27;92609;-46
2022/10/02 10:39:25;;;;;;;;;;;20.70;62.40;;;;;;5006784;27;94971;-47
2022/10/02 10:41:56;;;;;;;;;;;20.70;62.60;;;;;;5007099;27;89094;-46
2022/10/02 10:44:27;;;;;;;;;;;20.60;63.90;;;;;;5022742;27;89702;-50
2022/10/02 10:47:02;;;;;;;;;;;20.50;64.60;;;;;;5019843;27;90023;-53
2022/10/02 10:49:48;;;;;;;;;;;20.40;64.80;;;;;;5012765;27;91575;-49
2022/10/02 10:52:21;;;;;;;;;;;20.40;64.90;;;;;;5017937;27;92107;-48
2022/10/02 10:55:05;;;;;;;;;;;20.40;64.80;;;;;;5023964;27;91196;-52
2022/10/02 10:57:30;;;;;;;;;;;20.40;64.80;;;;;;5022791;27;91350;-51
2022/10/02 11:00:02;;;;;;;;;;;20.40;64.60;;;;;;5019233;27;90356;-52
2022/10/02 11:02:31;;;;;;;;;;;20.50;64.60;;;;;;5019416;27;94699;-49
2022/10/02 11:05:15;;;;;;;;;;;20.40;64.60;;;;;;5025815;27;89497;-50
2022/10/02 11:07:40;;;;;;;;;;;20.40;64.60;;;;;;5023646;27;88835;-50
2022/10/02 11:10:15;;;;;;;;;;;20.40;64.60;;;;;;5027116;27;89744;-52
2022/10/02 11:13:04;;;;;;;;;;;20.40;64.30;;;;;;5020391;27;91761;-50
2022/10/02 11:15:30;;;;;;;;;;;20.40;64.10;;;;;;5022448;27;91021;-50
2022/10/02 11:17:59;;;;;;;;;;;20.50;64.00;;;;;;5018817;27;91535;-49
2022/10/02 11:20:43;;;;;;;;;;;20.50;64.00;;;;;;5020515;27;91214;-51
2022/10/02 11:23:27;;;;;;;;;;;20.50;63.80;;;;;;5021753;27;92371;-50
2022/10/02 11:26:13;;;;;;;;;;;20.60;63.60;;;;;;5033830;27;89540;-45
2022/10/02 11:28:48;;;;;;;;;;;20.60;63.30;;;;;;5012800;27;92571;-50
2022/10/02 11:31:24;;;;;;;;;;;20.70;63.30;;;;;;5016212;27;90616;-48
2022/10/02 11:34:02;;;;;;;;;;;20.70;63.10;;;;;;5014725;27;94181;-47
2022/10/02 11:36:46;;;;;;;;;;;20.70;63.10;;;;;;5015184;27;90146;-54
2022/10/02 11:39:20;;;;;;;;;;;20.70;63.20;;;;;;5021483;27;89899;-49
2022/10/02 11:41:58;;;;;;;;;;;20.70;63.20;;;;;;5027452;27;91125;-50
2022/10/02 11:44:29;;;;;;;;;;;20.70;63.10;;;;;;5029716;27;92246;-50
2022/10/02 11:47:07;;;;;;;;;;;20.70;63.00;;;;;;5020111;27;89971;-52
2022/10/02 11:49:42;;;;;;;;;;;20.60;63.00;;;;;;5014847;27;92492;-47
2022/10/02 11:52:08;;;;;;;;;;;20.70;63.00;;;;;;5025179;27;94059;-53
2022/10/02 11:54:43;;;;;;;;;;;20.70;63.00;;;;;;5027801;27;93885;-50
2022/10/02 11:57:28;;;;;;;;;;;20.70;63.00;;;;;;5022516;27;94328;-51
2022/10/02 12:00:01;;;;;;;;;;;20.70;63.10;;;;;;5019436;27;90215;-51
2022/10/02 12:02:33;;;;;;;;;;;20.70;63.00;;;;;;5019071;27;92637;-51
2022/10/02 12:05:17;;;;;;;;;;;20.60;63.10;;;;;;5016551;27;93413;-47
2022/10/02 12:07:45;;;;;;;;;;;20.60;63.20;;;;;;5019634;27;92757;-48
2022/10/02 12:10:29;;;;;;;;;;;20.60;63.30;;;;;;5024207;27;89883;-54
2022/10/02 12:13:10;;;;;;;;;;;20.60;63.20;;;;;;5019699;27;90809;-50
2022/10/02 12:15:51;;;;;;;;;;;20.60;63.50;;;;;;5016720;27;89988;-47
2022/10/02 12:18:30;;;;;;;;;;;20.50;63.40;;;;;;5009239;27;92639;-51
2022/10/02 12:27:13;;;;;;;;;;;20.50;63.20;;;;;;5025278;27;89514;-50
2022/10/02 12:29:39;;;;;;;;;;;20.50;63.30;;;;;;5024108;27;89939;-49
2022/10/02 12:32:21;;;;;;;;;;;20.60;63.20;;;;;;5018935;27;91133;-51
2022/10/02 12:34:47;;;;;;;;;;;20.50;63.30;;;;;;5030835;27;90454;-49
2022/10/02 12:37:28;;;;;;;;;;;20.50;63.20;;;;;;5018918;27;92060;-47
2022/10/02 12:40:00;;;;;;;;;;;20.60;63.10;;;;;;5019423;27;90403;-53
2022/10/02 12:42:34;;;;;;;;;;;20.60;63.40;;;;;;5015570;27;91179;-50
2022/10/02 12:45:12;;;;;;;;;;;20.50;63.40;;;;;;5016552;27;93107;-49
2022/10/02 12:47:52;;;;;;;;;;;20.60;63.30;;;;;;5017396;27;89857;-52
2022/10/02 12:50:28;;;;;;;;;;;20.60;63.40;;;;;;5019244;27;91221;-51
2022/10/02 12:53:00;;;;;;;;;;;20.70;63.40;;;;;;5022894;27;93921;-52
2022/10/02 12:55:44;;;;;;;;;;;20.60;63.30;;;;;;5025599;27;90144;-50
2022/10/02 12:58:22;;;;;;;;;;;20.60;63.40;;;;;;5027844;27;90169;-47
2022/10/02 13:01:06;;;;;;;;;;;20.60;63.30;;;;;;5020343;27;94087;-49
2022/10/02 13:03:35;;;;;;;;;;;20.60;63.40;;;;;;5010384;27;89538;-51
2022/10/02 13:06:09;;;;;;;;;;;20.60;63.30;;;;;;5009949;27;91593;-47
2022/10/02 13:08:50;;;;;;;;;;;20.60;63.60;;;;;;5002313;27;90392;-50
2022/10/02 13:11:29;;;;;;;;;;;20.50;63.80;;;;;;5016803;27;89602;-50
2022/10/02 13:13:58;;;;;;;;;;;20.60;63.90;;;;;;5016008;27;90503;-52
2022/10/02 13:16:35;;;;;;;;;;;20.50;63.80;;;;;;5029789;27;90640;-51
2022/10/02 13:19:10;;;;;;;;;;;20.60;63.80;;;;;;5030018;27;91065;-51
2022/10/02 13:21:41;;;;;;;;;;;20.60;63.70;;;;;;5022073;27;89938;-52
2022/10/02 13:24:15;;;;;;;;;;;20.50;64.50;;;;;;5021599;27;93722;-47
2022/10/02 13:26:48;;;;;;;;;;;20.60;65.70;;;;;;5020253;27;91572;-51
2022/10/02 13:29:16;;;;;;;;;;;20.60;65.30;;;;;;5024584;27;98097;-48
2022/10/02 13:31:44;;;;;;;;;;;20.60;65.20;;;;;;5027292;27;89497;-51
2022/10/02 13:34:12;;;;;;;;;;;20.70;65.20;;;;;;5015969;27;90527;-50
2022/10/02 13:36:50;;;;;;;;;;;20.70;65.20;;;;;;5023822;27;91851;-50
2022/10/02 13:39:21;;;;;;;;;;;20.70;65.10;;;;;;5025253;27;90034;-51
2022/10/02 13:41:59;;;;;;;;;;;20.80;65.40;;;;;;5022918;27;90725;-48
2022/10/02 13:44:29;;;;;;;;;;;20.70;65.60;;;;;;5016286;27;89605;-47
2022/10/02 13:47:11;;;;;;;;;;;20.80;65.80;;;;;;5012543;27;90352;-47
2022/10/02 13:49:37;;;;;;;;;;;20.70;65.80;;;;;;5029128;27;97042;-49
2022/10/02 13:52:21;;;;;;;;;;;20.80;66.00;;;;;;5019694;27;94088;-50
2022/10/02 13:54:53;;;;;;;;;;;20.80;66.10;;;;;;5027204;27;89844;-48
2022/10/02 13:57:25;;;;;;;;;;;20.80;66.10;;;;;;5019269;27;90260;-48
2022/10/02 14:00:09;;;;;;;;;;;20.80;66.20;;;;;;5018323;27;91133;-52
2022/10/02 14:02:44;;;;;;;;;;;20.80;66.50;;;;;;5021383;27;89538;-48
2022/10/02 14:05:10;;;;;;;;;;;20.80;66.50;;;;;;5021529;27;92443;-47
2022/10/02 14:07:54;;;;;;;;;;;20.80;66.40;;;;;;5025256;27;94039;-46
2022/10/02 14:10:20;;;;;;;;;;;20.80;66.60;;;;;;5006557;27;90288;-48
2022/10/02 14:12:48;;;;;;;;;;;20.80;66.40;;;;;;5017966;27;92544;-50
2022/10/02 14:15:22;;;;;;;;;;;20.90;66.50;;;;;;5021145;27;89538;-48
2022/10/02 14:18:05;;;;;;;;;;;20.80;66.70;;;;;;5017677;27;92274;-49
2022/10/02 14:20:50;;;;;;;;;;;20.80;67.40;;;;;;5035785;27;90502;-51
2022/10/02 14:23:21;;;;;;;;;;;20.90;67.60;;;;;;5029686;27;89434;-52
2022/10/02 14:25:58;;;;;;;;;;;20.90;67.90;;;;;;5023617;27;90227;-50
2022/10/02 14:28:29;;;;;;;;;;;20.90;68.20;;;;;;5021576;27;89852;-46
2022/10/02 14:31:09;;;;;;;;;;;20.90;68.50;;;;;;5021319;27;91692;-48
2022/10/02 14:33:44;;;;;;;;;;;20.90;68.50;;;;;;5020489;27;89900;-48
2022/10/02 14:36:29;;;;;;;;;;;21.00;68.50;;;;;;5026976;27;89170;-51